sensor_id;sensor_type;location;lat;lon;timestamp;temperature;humidity
981;DHT22;479;53.514;9.994;2023-03-20T00:00:32;9.40;99.90
981;DHT22;479;53.514;9.994;2023-03-20T00:03:00;9.50;99.90
981;DHT22;479;53.514;9.994;2023-03-20T00:05:28;9.50;99.90
981;DHT22;479;53.514;9.994;2023-03-20T00:07:56;9.40;99.90
981;DHT22;479;53.514;9.994;2023-03-20T00:10:25;9.40;99.90
981;DHT22;479;53.514;9.994;2023-03-20T00:12:55;9.40;99.90
981;DHT22;479;53.514;9.994;2023-03-20T00:15:26;9.50;99.90
981;DHT22;479;53.514;9.994;2023-03-20T00:17:53;9.50;99.90
981;DHT22;479;53.514;9.994;2023-03-20T00:20:20;9.50;99.90
981;DHT22;479;53.514;9.994;2023-03-20T00:22:48;9.50;99.90
981;DHT22;479;53.514;9.994;2023-03-20T00:25:16;9.50;99.90
981;DHT22;479;53.514;9.994;2023-03-20T00:27:44;9.50;99.90
981;DHT22;479;53.514;9.994;2023-03-20T00:30:22;9.50;99.90
981;DHT22;479;53.514;9.994;2023-03-20T00:32:52;9.60;99.90
981;DHT22;479;53.514;9.994;2023-03-20T00:35:21;9.60;99.90
981;DHT22;479;53.514;9.994;2023-03-20T00:37:50;9.60;99.90
981;DHT22;479;53.514;9.994;2023-03-20T00:40:17;9.60;99.90
981;DHT22;479;53.514;9.994;2023-03-20T00:42:46;9.70;99.90
981;DHT22;479;53.514;9.994;2023-03-20T00:45:16;9.70;99.90
981;DHT22;479;53.514;9.994;2023-03-20T00:47:47;9.70;99.90
981;DHT22;479;53.514;9.994;2023-03-20T00:50:20;9.70;99.90
981;DHT22;479;53.514;9.994;2023-03-20T00:52:50;9.70;99.90
981;DHT22;479;53.514;9.994;2023-03-20T00:55:18;9.80;99.90
981;DHT22;479;53.514;9.994;2023-03-20T00:57:48;9.80;99.90
981;DHT22;479;53.514;9.994;2023-03-20T01:00:23;9.70;99.90
981;DHT22;479;53.514;9.994;2023-03-20T01:02:53;9.70;99.90
981;DHT22;479;53.514;9.994;2023-03-20T01:05:24;9.70;99.90
981;DHT22;479;53.514;9.994;2023-03-20T01:07:53;9.80;99.90
981;DHT22;479;53.514;9.994;2023-03-20T01:10:22;9.80;99.90
981;DHT22;479;53.514;9.994;2023-03-20T01:12:52;9.70;99.90
981;DHT22;479;53.514;9.994;2023-03-20T01:15:21;9.70;99.90
981;DHT22;479;53.514;9.994;2023-03-20T01:17:49;9.70;99.90
981;DHT22;479;53.514;9.994;2023-03-20T01:20:22;9.70;99.90
981;DHT22;479;53.514;9.994;2023-03-20T01:22:49;9.70;99.90
981;DHT22;479;53.514;9.994;2023-03-20T01:25:16;9.70;99.90
981;DHT22;479;53.514;9.994;2023-03-20T01:27:47;9.80;99.90
981;DHT22;479;53.514;9.994;2023-03-20T01:30:17;9.80;99.90
981;DHT22;479;53.514;9.994;2023-03-20T01:32:44;9.80;99.90
981;DHT22;479;53.514;9.994;2023-03-20T01:35:15;9.80;99.90
981;DHT22;479;53.514;9.994;2023-03-20T01:37:44;9.70;99.90
981;DHT22;479;53.514;9.994;2023-03-20T01:40:27;9.70;99.90
981;DHT22;479;53.514;9.994;2023-03-20T01:42:56;9.70;99.90
981;DHT22;479;53.514;9.994;2023-03-20T01:45:25;9.70;99.90
981;DHT22;479;53.514;9.994;2023-03-20T01:47:54;9.80;99.90
981;DHT22;479;53.514;9.994;2023-03-20T01:50:27;9.70;99.90
981;DHT22;479;53.514;9.994;2023-03-20T01:53:09;9.80;99.90
981;DHT22;479;53.514;9.994;2023-03-20T01:55:44;9.80;99.90
981;DHT22;479;53.514;9.994;2023-03-20T01:58:17;9.80;99.90
981;DHT22;479;53.514;9.994;2023-03-20T02:00:46;9.80;99.90
981;DHT22;479;53.514;9.994;2023-03-20T02:03:16;9.80;99.90
981;DHT22;479;53.514;9.994;2023-03-20T02:06:11;9.90;99.90
981;DHT22;479;53.514;9.994;2023-03-20T02:08:58;9.90;99.90
981;DHT22;479;53.514;9.994;2023-03-20T02:11:28;9.90;99.90
981;DHT22;479;53.514;9.994;2023-03-20T02:13:58;9.80;99.90
981;DHT22;479;53.514;9.994;2023-03-20T02:16:31;9.80;99.90
981;DHT22;479;53.514;9.994;2023-03-20T02:19:08;9.80;99.90
981;DHT22;479;53.514;9.994;2023-03-20T02:22:06;9.70;99.90
981;DHT22;479;53.514;9.994;2023-03-20T02:25:09;9.90;99.90
981;DHT22;479;53.514;9.994;2023-03-20T02:27:56;9.90;99.90
981;DHT22;479;53.514;9.994;2023-03-20T02:33:48;10.00;99.90
981;DHT22;479;53.514;9.994;2023-03-20T02:36:56;10.10;99.90
981;DHT22;479;53.514;9.994;2023-03-20T02:39:46;10.20;99.90
981;DHT22;479;53.514;9.994;2023-03-20T02:42:23;10.10;99.90
981;DHT22;479;53.514;9.994;2023-03-20T02:45:00;9.90;99.90
981;DHT22;479;53.514;9.994;2023-03-20T02:47:34;9.80;99.90
981;DHT22;479;53.514;9.994;2023-03-20T02:50:15;9.70;99.90
981;DHT22;479;53.514;9.994;2023-03-20T02:52:50;9.60;99.90
981;DHT22;479;53.514;9.994;2023-03-20T02:55:30;9.60;99.90
981;DHT22;479;53.514;9.994;2023-03-20T02:58:06;9.60;99.90
981;DHT22;479;53.514;9.994;2023-03-20T03:00:38;9.40;99.90
981;DHT22;479;53.514;9.994;2023-03-20T03:03:10;9.30;99.90
981;DHT22;479;53.514;9.994;2023-03-20T03:05:43;9.20;99.90
981;DHT22;479;53.514;9.994;2023-03-20T03:08:13;9.20;99.90
981;DHT22;479;53.514;9.994;2023-03-20T03:10:48;9.20;99.90
981;DHT22;479;53.514;9.994;2023-03-20T03:13:19;9.20;99.90
981;DHT22;479;53.514;9.994;2023-03-20T03:15:51;9.10;99.90
981;DHT22;479;53.514;9.994;2023-03-20T03:18:22;9.10;99.90
981;DHT22;479;53.514;9.994;2023-03-20T03:20:54;9.20;99.90
981;DHT22;479;53.514;9.994;2023-03-20T03:23:27;9.10;99.90
981;DHT22;479;53.514;9.994;2023-03-20T03:25:56;9.10;99.90
981;DHT22;479;53.514;9.994;2023-03-20T03:28:30;9.10;99.90
981;DHT22;479;53.514;9.994;2023-03-20T03:31:03;9.20;99.90
981;DHT22;479;53.514;9.994;2023-03-20T03:33:34;9.20;99.90
981;DHT22;479;53.514;9.994;2023-03-20T03:36:10;9.30;99.90
981;DHT22;479;53.514;9.994;2023-03-20T03:38:43;9.20;99.90
981;DHT22;479;53.514;9.994;2023-03-20T03:41:18;9.10;99.90
981;DHT22;479;53.514;9.994;2023-03-20T03:43:51;9.00;99.90
981;DHT22;479;53.514;9.994;2023-03-20T03:46:22;9.10;99.90
981;DHT22;479;53.514;9.994;2023-03-20T03:48:54;9.20;99.90
981;DHT22;479;53.514;9.994;2023-03-20T03:51:25;9.20;99.90
981;DHT22;479;53.514;9.994;2023-03-20T03:54:04;9.20;99.90
981;DHT22;479;53.514;9.994;2023-03-20T03:56:34;9.20;99.90
981;DHT22;479;53.514;9.994;2023-03-20T03:59:07;9.10;99.90
981;DHT22;479;53.514;9.994;2023-03-20T04:01:37;9.10;99.90
981;DHT22;479;53.514;9.994;2023-03-20T04:04:09;9.10;99.90
981;DHT22;479;53.514;9.994;2023-03-20T04:06:38;9.10;99.90
981;DHT22;479;53.514;9.994;2023-03-20T04:09:07;9.20;99.90
981;DHT22;479;53.514;9.994;2023-03-20T04:11:35;9.10;99.90
981;DHT22;479;53.514;9.994;2023-03-20T04:14:02;9.20;99.90
981;DHT22;479;53.514;9.994;2023-03-20T04:16:30;9.40;99.90
981;DHT22;479;53.514;9.994;2023-03-20T04:18:57;9.20;99.90
981;DHT22;479;53.514;9.994;2023-03-20T04:21:24;9.20;99.90
981;DHT22;479;53.514;9.994;2023-03-20T04:23:51;9.20;99.90
981;DHT22;479;53.514;9.994;2023-03-20T04:26:20;9.30;99.90
981;DHT22;479;53.514;9.994;2023-03-20T04:28:50;9.20;99.90
981;DHT22;479;53.514;9.994;2023-03-20T04:31:36;9.20;99.90
981;DHT22;479;53.514;9.994;2023-03-20T04:34:16;9.20;99.90
981;DHT22;479;53.514;9.994;2023-03-20T04:37:05;9.20;99.90
981;DHT22;479;53.514;9.994;2023-03-20T04:39:48;9.10;99.90
981;DHT22;479;53.514;9.994;2023-03-20T04:42:15;9.10;99.90
981;DHT22;479;53.514;9.994;2023-03-20T04:44:43;9.00;99.90
981;DHT22;479;53.514;9.994;2023-03-20T04:47:11;9.00;99.90
981;DHT22;479;53.514;9.994;2023-03-20T04:49:41;9.10;99.90
981;DHT22;479;53.514;9.994;2023-03-20T04:52:08;9.10;99.90
981;DHT22;479;53.514;9.994;2023-03-20T04:54:39;9.20;99.90
981;DHT22;479;53.514;9.994;2023-03-20T04:57:06;9.20;99.90
981;DHT22;479;53.514;9.994;2023-03-20T04:59:33;9.20;99.90
981;DHT22;479;53.514;9.994;2023-03-20T05:02:01;9.20;99.90
981;DHT22;479;53.514;9.994;2023-03-20T05:04:28;9.30;99.90
981;DHT22;479;53.514;9.994;2023-03-20T05:06:56;9.30;99.90
981;DHT22;479;53.514;9.994;2023-03-20T05:09:28;9.30;99.90
981;DHT22;479;53.514;9.994;2023-03-20T05:11:59;9.30;99.90
981;DHT22;479;53.514;9.994;2023-03-20T05:14:44;9.20;99.90
981;DHT22;479;53.514;9.994;2023-03-20T05:17:24;9.20;99.90
981;DHT22;479;53.514;9.994;2023-03-20T05:20:20;9.30;99.90
981;DHT22;479;53.514;9.994;2023-03-20T05:22:57;9.10;99.90
981;DHT22;479;53.514;9.994;2023-03-20T05:25:45;9.10;99.90
981;DHT22;479;53.514;9.994;2023-03-20T05:28:45;9.10;99.90
981;DHT22;479;53.514;9.994;2023-03-20T05:31:20;9.00;99.90
981;DHT22;479;53.514;9.994;2023-03-20T05:34:03;9.00;99.90
981;DHT22;479;53.514;9.994;2023-03-20T05:36:42;8.90;99.90
981;DHT22;479;53.514;9.994;2023-03-20T05:39:38;8.80;99.90
981;DHT22;479;53.514;9.994;2023-03-20T05:42:27;8.70;99.90
981;DHT22;479;53.514;9.994;2023-03-20T05:45:09;8.70;99.90
981;DHT22;479;53.514;9.994;2023-03-20T05:48:07;8.70;99.90
981;DHT22;479;53.514;9.994;2023-03-20T05:50:48;8.80;99.90
981;DHT22;479;53.514;9.994;2023-03-20T05:53:41;8.90;99.90
981;DHT22;479;53.514;9.994;2023-03-20T05:56:40;8.90;99.90
981;DHT22;479;53.514;9.994;2023-03-20T05:59:15;8.90;99.90
981;DHT22;479;53.514;9.994;2023-03-20T06:02:00;8.80;99.90
981;DHT22;479;53.514;9.994;2023-03-20T06:04:31;8.80;99.90
981;DHT22;479;53.514;9.994;2023-03-20T06:07:19;8.70;99.90
981;DHT22;479;53.514;9.994;2023-03-20T06:09:55;8.70;99.90
981;DHT22;479;53.514;9.994;2023-03-20T06:12:22;8.80;99.90
981;DHT22;479;53.514;9.994;2023-03-20T06:14:48;8.90;99.90
981;DHT22;479;53.514;9.994;2023-03-20T06:17:15;8.90;99.90
981;DHT22;479;53.514;9.994;2023-03-20T06:19:47;8.90;99.90
981;DHT22;479;53.514;9.994;2023-03-20T06:22:14;8.90;99.90
981;DHT22;479;53.514;9.994;2023-03-20T06:24:42;8.90;99.90
981;DHT22;479;53.514;9.994;2023-03-20T06:27:10;8.90;99.90
981;DHT22;479;53.514;9.994;2023-03-20T06:29:38;8.90;99.90
981;DHT22;479;53.514;9.994;2023-03-20T06:32:15;8.90;99.90
981;DHT22;479;53.514;9.994;2023-03-20T06:34:43;8.90;99.90
981;DHT22;479;53.514;9.994;2023-03-20T06:37:10;8.90;99.90
981;DHT22;479;53.514;9.994;2023-03-20T06:39:37;8.90;99.90
981;DHT22;479;53.514;9.994;2023-03-20T06:42:10;8.90;99.90
981;DHT22;479;53.514;9.994;2023-03-20T06:44:39;9.00;99.90
981;DHT22;479;53.514;9.994;2023-03-20T06:47:12;9.00;99.90
981;DHT22;479;53.514;9.994;2023-03-20T06:49:39;9.00;99.90
981;DHT22;479;53.514;9.994;2023-03-20T06:52:06;9.10;99.90
981;DHT22;479;53.514;9.994;2023-03-20T06:54:35;9.10;99.90
981;DHT22;479;53.514;9.994;2023-03-20T06:57:02;9.20;99.90
981;DHT22;479;53.514;9.994;2023-03-20T06:59:30;9.10;99.90
981;DHT22;479;53.514;9.994;2023-03-20T07:01:57;9.20;99.90
981;DHT22;479;53.514;9.994;2023-03-20T07:04:25;9.00;99.90
981;DHT22;479;53.514;9.994;2023-03-20T07:06:55;9.00;99.90
981;DHT22;479;53.514;9.994;2023-03-20T07:09:23;9.00;99.90
981;DHT22;479;53.514;9.994;2023-03-20T07:11:50;9.10;99.90
981;DHT22;479;53.514;9.994;2023-03-20T07:14:18;9.10;99.90
981;DHT22;479;53.514;9.994;2023-03-20T07:16:51;9.10;99.90
981;DHT22;479;53.514;9.994;2023-03-20T07:19:20;9.10;99.90
981;DHT22;479;53.514;9.994;2023-03-20T07:21:53;9.20;99.90
981;DHT22;479;53.514;9.994;2023-03-20T07:24:21;9.20;99.90
981;DHT22;479;53.514;9.994;2023-03-20T07:26:48;9.30;99.90
981;DHT22;479;53.514;9.994;2023-03-20T07:29:16;9.20;99.90
981;DHT22;479;53.514;9.994;2023-03-20T07:31:44;9.20;99.90
981;DHT22;479;53.514;9.994;2023-03-20T07:34:22;9.20;99.90
981;DHT22;479;53.514;9.994;2023-03-20T07:36:50;9.20;99.90
981;DHT22;479;53.514;9.994;2023-03-20T07:39:20;9.30;99.90
981;DHT22;479;53.514;9.994;2023-03-20T07:41:58;9.30;99.90
981;DHT22;479;53.514;9.994;2023-03-20T07:44:37;9.30;99.90
981;DHT22;479;53.514;9.994;2023-03-20T07:47:08;9.30;99.90
981;DHT22;479;53.514;9.994;2023-03-20T07:49:37;9.40;99.90
981;DHT22;479;53.514;9.994;2023-03-20T07:52:06;9.40;99.90
981;DHT22;479;53.514;9.994;2023-03-20T07:54:33;9.40;99.90
981;DHT22;479;53.514;9.994;2023-03-20T07:57:00;9.40;99.90
981;DHT22;479;53.514;9.994;2023-03-20T07:59:28;9.40;99.90
981;DHT22;479;53.514;9.994;2023-03-20T08:01:55;9.40;99.90
981;DHT22;479;53.514;9.994;2023-03-20T08:04:22;9.40;99.90
981;DHT22;479;53.514;9.994;2023-03-20T08:06:50;9.20;99.90
981;DHT22;479;53.514;9.994;2023-03-20T08:09:17;9.30;99.90
981;DHT22;479;53.514;9.994;2023-03-20T08:11:45;9.40;99.90
981;DHT22;479;53.514;9.994;2023-03-20T08:14:12;9.40;99.90
981;DHT22;479;53.514;9.994;2023-03-20T08:16:39;9.50;99.90
981;DHT22;479;53.514;9.994;2023-03-20T08:19:06;9.60;99.90
981;DHT22;479;53.514;9.994;2023-03-20T08:21:33;9.50;99.90
981;DHT22;479;53.514;9.994;2023-03-20T08:24:01;9.60;99.90
981;DHT22;479;53.514;9.994;2023-03-20T08:26:28;9.70;99.90
981;DHT22;479;53.514;9.994;2023-03-20T08:28:55;9.70;99.90
981;DHT22;479;53.514;9.994;2023-03-20T08:31:23;9.60;99.90
981;DHT22;479;53.514;9.994;2023-03-20T08:33:50;9.60;99.90
981;DHT22;479;53.514;9.994;2023-03-20T08:36:18;9.60;99.90
981;DHT22;479;53.514;9.994;2023-03-20T08:38:46;9.60;99.90
981;DHT22;479;53.514;9.994;2023-03-20T08:41:15;9.60;99.90
981;DHT22;479;53.514;9.994;2023-03-20T08:43:42;9.60;99.90
981;DHT22;479;53.514;9.994;2023-03-20T08:46:09;9.60;99.90
981;DHT22;479;53.514;9.994;2023-03-20T08:48:36;9.60;99.90
981;DHT22;479;53.514;9.994;2023-03-20T08:51:04;9.60;99.90
981;DHT22;479;53.514;9.994;2023-03-20T08:53:31;9.70;99.90
981;DHT22;479;53.514;9.994;2023-03-20T08:55:59;9.70;99.90
981;DHT22;479;53.514;9.994;2023-03-20T08:58:27;9.70;99.90
981;DHT22;479;53.514;9.994;2023-03-20T09:00:54;9.70;99.90
981;DHT22;479;53.514;9.994;2023-03-20T09:03:21;9.70;99.90
981;DHT22;479;53.514;9.994;2023-03-20T09:05:50;9.80;99.90
981;DHT22;479;53.514;9.994;2023-03-20T09:08:17;9.90;99.90
981;DHT22;479;53.514;9.994;2023-03-20T09:10:46;9.90;99.90
981;DHT22;479;53.514;9.994;2023-03-20T09:13:13;9.90;99.90
981;DHT22;479;53.514;9.994;2023-03-20T09:15:42;9.80;99.90
981;DHT22;479;53.514;9.994;2023-03-20T09:18:09;9.80;99.90
981;DHT22;479;53.514;9.994;2023-03-20T09:20:35;9.90;99.90
981;DHT22;479;53.514;9.994;2023-03-20T09:23:02;10.00;99.90
981;DHT22;479;53.514;9.994;2023-03-20T09:25:29;10.00;99.90
981;DHT22;479;53.514;9.994;2023-03-20T09:27:56;10.10;99.90
981;DHT22;479;53.514;9.994;2023-03-20T09:30:23;10.00;99.90
981;DHT22;479;53.514;9.994;2023-03-20T09:32:56;10.00;99.90
981;DHT22;479;53.514;9.994;2023-03-20T09:35:26;10.00;99.90
981;DHT22;479;53.514;9.994;2023-03-20T09:37:53;10.20;99.90
981;DHT22;479;53.514;9.994;2023-03-20T09:40:24;10.00;99.90
981;DHT22;479;53.514;9.994;2023-03-20T09:42:56;10.20;99.90
981;DHT22;479;53.514;9.994;2023-03-20T09:45:35;10.20;99.90
981;DHT22;479;53.514;9.994;2023-03-20T09:48:10;10.20;99.90
981;DHT22;479;53.514;9.994;2023-03-20T09:50:47;10.10;99.90
981;DHT22;479;53.514;9.994;2023-03-20T09:53:21;10.20;99.90
981;DHT22;479;53.514;9.994;2023-03-20T09:55:51;10.10;99.90
981;DHT22;479;53.514;9.994;2023-03-20T09:58:23;10.20;99.90
981;DHT22;479;53.514;9.994;2023-03-20T10:00:51;10.40;99.90
981;DHT22;479;53.514;9.994;2023-03-20T10:03:26;10.30;99.90
981;DHT22;479;53.514;9.994;2023-03-20T10:05:57;10.30;99.90
981;DHT22;479;53.514;9.994;2023-03-20T10:08:27;10.20;99.90
981;DHT22;479;53.514;9.994;2023-03-20T10:11:03;10.30;99.90
981;DHT22;479;53.514;9.994;2023-03-20T10:13:47;10.30;99.90
981;DHT22;479;53.514;9.994;2023-03-20T10:16:24;10.20;99.90
981;DHT22;479;53.514;9.994;2023-03-20T10:19:00;10.20;99.90
981;DHT22;479;53.514;9.994;2023-03-20T10:21:37;10.20;99.90
981;DHT22;479;53.514;9.994;2023-03-20T10:24:07;10.20;99.90
981;DHT22;479;53.514;9.994;2023-03-20T10:26:41;10.20;99.90
981;DHT22;479;53.514;9.994;2023-03-20T10:29:16;10.20;99.90
981;DHT22;479;53.514;9.994;2023-03-20T10:31:49;10.20;99.90
981;DHT22;479;53.514;9.994;2023-03-20T10:34:29;10.20;99.90
981;DHT22;479;53.514;9.994;2023-03-20T10:37:08;10.30;99.90
981;DHT22;479;53.514;9.994;2023-03-20T10:39:51;10.30;99.90
981;DHT22;479;53.514;9.994;2023-03-20T10:42:25;10.30;99.90
981;DHT22;479;53.514;9.994;2023-03-20T10:44:55;10.30;99.90
981;DHT22;479;53.514;9.994;2023-03-20T10:47:27;10.10;99.90
981;DHT22;479;53.514;9.994;2023-03-20T10:50:00;10.30;99.90
981;DHT22;479;53.514;9.994;2023-03-20T10:52:31;10.30;99.90
981;DHT22;479;53.514;9.994;2023-03-20T10:55:00;10.60;99.90
981;DHT22;479;53.514;9.994;2023-03-20T10:57:33;10.70;99.90
981;DHT22;479;53.514;9.994;2023-03-20T11:00:01;10.50;99.90
981;DHT22;479;53.514;9.994;2023-03-20T11:02:30;10.40;99.90
981;DHT22;479;53.514;9.994;2023-03-20T11:05:00;10.40;99.90
981;DHT22;479;53.514;9.994;2023-03-20T11:07:31;10.30;99.90
981;DHT22;479;53.514;9.994;2023-03-20T11:10:12;10.30;99.90
981;DHT22;479;53.514;9.994;2023-03-20T11:12:42;10.40;99.90
981;DHT22;479;53.514;9.994;2023-03-20T11:15:21;10.60;99.90
981;DHT22;479;53.514;9.994;2023-03-20T11:17:54;10.70;99.90
981;DHT22;479;53.514;9.994;2023-03-20T11:20:23;10.60;99.90
981;DHT22;479;53.514;9.994;2023-03-20T11:22:56;10.60;99.90
981;DHT22;479;53.514;9.994;2023-03-20T11:25:28;10.70;99.90
981;DHT22;479;53.514;9.994;2023-03-20T11:27:57;10.90;99.90
981;DHT22;479;53.514;9.994;2023-03-20T11:30:43;11.00;99.90
981;DHT22;479;53.514;9.994;2023-03-20T11:33:11;10.90;99.90
981;DHT22;479;53.514;9.994;2023-03-20T11:35:44;11.00;99.90
981;DHT22;479;53.514;9.994;2023-03-20T11:38:13;11.10;99.90
981;DHT22;479;53.514;9.994;2023-03-20T11:40:41;11.00;99.90
981;DHT22;479;53.514;9.994;2023-03-20T11:43:10;10.90;99.90
981;DHT22;479;53.514;9.994;2023-03-20T11:45:40;10.90;99.90
981;DHT22;479;53.514;9.994;2023-03-20T11:48:15;10.90;99.90
981;DHT22;479;53.514;9.994;2023-03-20T11:50:48;10.90;99.90
981;DHT22;479;53.514;9.994;2023-03-20T11:53:22;10.90;99.90
981;DHT22;479;53.514;9.994;2023-03-20T11:56:03;11.00;99.90
981;DHT22;479;53.514;9.994;2023-03-20T11:58:31;11.00;99.90
981;DHT22;479;53.514;9.994;2023-03-20T12:00:59;10.90;99.90
981;DHT22;479;53.514;9.994;2023-03-20T12:03:39;11.00;99.90
981;DHT22;479;53.514;9.994;2023-03-20T12:06:13;10.90;99.90
981;DHT22;479;53.514;9.994;2023-03-20T12:08:43;11.00;99.90
981;DHT22;479;53.514;9.994;2023-03-20T12:11:23;11.00;99.90
981;DHT22;479;53.514;9.994;2023-03-20T12:13:52;11.00;99.90
981;DHT22;479;53.514;9.994;2023-03-20T12:16:24;11.10;99.90
981;DHT22;479;53.514;9.994;2023-03-20T12:18:56;11.00;99.90
981;DHT22;479;53.514;9.994;2023-03-20T12:21:31;11.10;99.90
981;DHT22;479;53.514;9.994;2023-03-20T12:24:01;11.10;99.90
981;DHT22;479;53.514;9.994;2023-03-20T12:26:34;11.10;99.90
981;DHT22;479;53.514;9.994;2023-03-20T12:29:05;11.00;99.90
981;DHT22;479;53.514;9.994;2023-03-20T12:31:40;10.90;99.90
981;DHT22;479;53.514;9.994;2023-03-20T12:34:13;10.90;99.90
981;DHT22;479;53.514;9.994;2023-03-20T12:36:44;11.00;99.90
981;DHT22;479;53.514;9.994;2023-03-20T12:39:13;11.00;99.90
981;DHT22;479;53.514;9.994;2023-03-20T12:41:52;11.00;99.90
981;DHT22;479;53.514;9.994;2023-03-20T12:44:29;11.30;99.90
981;DHT22;479;53.514;9.994;2023-03-20T12:47:12;11.40;99.90
981;DHT22;479;53.514;9.994;2023-03-20T12:49:49;11.30;99.90
981;DHT22;479;53.514;9.994;2023-03-20T12:52:27;11.20;99.90
981;DHT22;479;53.514;9.994;2023-03-20T12:55:20;11.40;99.90
981;DHT22;479;53.514;9.994;2023-03-20T12:57:57;11.50;99.90
981;DHT22;479;53.514;9.994;2023-03-20T13:00:29;11.70;99.90
981;DHT22;479;53.514;9.994;2023-03-20T13:03:05;11.90;99.90
981;DHT22;479;53.514;9.994;2023-03-20T13:05:44;12.10;99.90
981;DHT22;479;53.514;9.994;2023-03-20T13:08:44;12.20;99.90
981;DHT22;479;53.514;9.994;2023-03-20T13:11:17;12.20;99.90
981;DHT22;479;53.514;9.994;2023-03-20T13:13:52;12.30;99.90
981;DHT22;479;53.514;9.994;2023-03-20T13:16:29;12.20;99.90
981;DHT22;479;53.514;9.994;2023-03-20T13:19:04;12.10;99.90
981;DHT22;479;53.514;9.994;2023-03-20T13:21:35;12.00;99.90
981;DHT22;479;53.514;9.994;2023-03-20T13:24:20;11.90;99.90
981;DHT22;479;53.514;9.994;2023-03-20T13:26:56;11.80;99.90
981;DHT22;479;53.514;9.994;2023-03-20T13:29:29;11.80;99.90
981;DHT22;479;53.514;9.994;2023-03-20T13:32:07;11.80;99.90
981;DHT22;479;53.514;9.994;2023-03-20T13:34:52;11.70;99.90
981;DHT22;479;53.514;9.994;2023-03-20T13:37:25;11.60;99.90
981;DHT22;479;53.514;9.994;2023-03-20T13:40:03;11.60;99.90
981;DHT22;479;53.514;9.994;2023-03-20T13:42:34;11.50;99.90
981;DHT22;479;53.514;9.994;2023-03-20T13:45:05;11.40;99.90
981;DHT22;479;53.514;9.994;2023-03-20T13:47:34;11.40;99.90
981;DHT22;479;53.514;9.994;2023-03-20T13:50:26;11.30;99.90
981;DHT22;479;53.514;9.994;2023-03-20T13:53:00;11.20;99.90
981;DHT22;479;53.514;9.994;2023-03-20T13:55:36;11.20;99.90
981;DHT22;479;53.514;9.994;2023-03-20T13:58:16;11.20;99.90
981;DHT22;479;53.514;9.994;2023-03-20T14:00:48;11.30;99.90
981;DHT22;479;53.514;9.994;2023-03-20T14:03:19;11.30;99.90
981;DHT22;479;53.514;9.994;2023-03-20T14:05:51;11.30;99.90
981;DHT22;479;53.514;9.994;2023-03-20T14:08:36;11.30;99.90
981;DHT22;479;53.514;9.994;2023-03-20T14:11:23;11.30;99.90
981;DHT22;479;53.514;9.994;2023-03-20T14:13:59;11.30;99.90
981;DHT22;479;53.514;9.994;2023-03-20T14:16:29;11.20;99.90
981;DHT22;479;53.514;9.994;2023-03-20T14:19:07;11.10;99.90
981;DHT22;479;53.514;9.994;2023-03-20T14:21:36;11.20;99.90
981;DHT22;479;53.514;9.994;2023-03-20T14:24:04;11.20;99.90
981;DHT22;479;53.514;9.994;2023-03-20T14:26:35;11.20;99.90
981;DHT22;479;53.514;9.994;2023-03-20T14:29:20;11.40;99.90
981;DHT22;479;53.514;9.994;2023-03-20T14:31:48;11.40;99.90
981;DHT22;479;53.514;9.994;2023-03-20T14:34:20;11.30;99.90
981;DHT22;479;53.514;9.994;2023-03-20T14:36:58;11.30;99.90
981;DHT22;479;53.514;9.994;2023-03-20T14:39:33;11.30;99.90
981;DHT22;479;53.514;9.994;2023-03-20T14:42:20;11.20;99.90
981;DHT22;479;53.514;9.994;2023-03-20T14:45:01;11.30;99.90
981;DHT22;479;53.514;9.994;2023-03-20T14:47:37;11.30;99.90
981;DHT22;479;53.514;9.994;2023-03-20T14:50:13;11.20;99.90
981;DHT22;479;53.514;9.994;2023-03-20T14:52:54;11.20;99.90
981;DHT22;479;53.514;9.994;2023-03-20T14:55:30;11.20;99.90
981;DHT22;479;53.514;9.994;2023-03-20T14:58:02;11.20;99.90
981;DHT22;479;53.514;9.994;2023-03-20T15:00:34;11.20;99.90
981;DHT22;479;53.514;9.994;2023-03-20T15:03:06;11.20;99.90
981;DHT22;479;53.514;9.994;2023-03-20T15:05:35;11.20;99.90
981;DHT22;479;53.514;9.994;2023-03-20T15:08:07;11.20;99.90
981;DHT22;479;53.514;9.994;2023-03-20T15:10:38;11.20;99.90
981;DHT22;479;53.514;9.994;2023-03-20T15:13:10;11.20;99.90
981;DHT22;479;53.514;9.994;2023-03-20T15:15:51;11.20;99.90
981;DHT22;479;53.514;9.994;2023-03-20T15:18:19;11.30;99.90
981;DHT22;479;53.514;9.994;2023-03-20T15:20:47;11.20;99.90
981;DHT22;479;53.514;9.994;2023-03-20T15:23:15;11.20;99.90
981;DHT22;479;53.514;9.994;2023-03-20T15:25:44;11.20;99.90
981;DHT22;479;53.514;9.994;2023-03-20T15:28:13;11.20;99.90
981;DHT22;479;53.514;9.994;2023-03-20T15:30:40;11.20;99.90
981;DHT22;479;53.514;9.994;2023-03-20T15:33:15;11.10;99.90
981;DHT22;479;53.514;9.994;2023-03-20T15:35:44;11.10;99.90
981;DHT22;479;53.514;9.994;2023-03-20T15:38:13;11.10;99.90
981;DHT22;479;53.514;9.994;2023-03-20T15:40:43;11.10;99.90
981;DHT22;479;53.514;9.994;2023-03-20T15:43:12;11.00;99.90
981;DHT22;479;53.514;9.994;2023-03-20T15:45:42;10.90;99.90
981;DHT22;479;53.514;9.994;2023-03-20T15:48:13;10.90;99.90
981;DHT22;479;53.514;9.994;2023-03-20T15:50:42;11.00;99.90
981;DHT22;479;53.514;9.994;2023-03-20T15:53:15;10.90;99.90
981;DHT22;479;53.514;9.994;2023-03-20T15:55:49;10.80;99.90
981;DHT22;479;53.514;9.994;2023-03-20T15:58:16;10.90;99.90
981;DHT22;479;53.514;9.994;2023-03-20T16:00:45;10.80;99.90
981;DHT22;479;53.514;9.994;2023-03-20T16:03:15;10.80;99.90
981;DHT22;479;53.514;9.994;2023-03-20T16:05:45;10.80;99.90
981;DHT22;479;53.514;9.994;2023-03-20T16:08:14;10.90;99.90
981;DHT22;479;53.514;9.994;2023-03-20T16:10:44;10.90;99.90
981;DHT22;479;53.514;9.994;2023-03-20T16:13:13;10.90;99.90
981;DHT22;479;53.514;9.994;2023-03-20T16:15:41;10.80;99.90
981;DHT22;479;53.514;9.994;2023-03-20T16:18:12;10.90;99.90
981;DHT22;479;53.514;9.994;2023-03-20T16:20:43;10.80;99.90
981;DHT22;479;53.514;9.994;2023-03-20T16:23:15;10.70;99.90
981;DHT22;479;53.514;9.994;2023-03-20T16:25:45;10.70;99.90
981;DHT22;479;53.514;9.994;2023-03-20T16:28:14;10.70;99.90
981;DHT22;479;53.514;9.994;2023-03-20T16:30:42;10.70;99.90
981;DHT22;479;53.514;9.994;2023-03-20T16:33:12;10.70;99.90
981;DHT22;479;53.514;9.994;2023-03-20T16:35:42;10.70;99.90
981;DHT22;479;53.514;9.994;2023-03-20T16:38:15;10.80;99.90
981;DHT22;479;53.514;9.994;2023-03-20T16:40:42;10.70;99.90
981;DHT22;479;53.514;9.994;2023-03-20T16:43:14;10.80;99.90
981;DHT22;479;53.514;9.994;2023-03-20T16:45:44;10.70;99.90
981;DHT22;479;53.514;9.994;2023-03-20T16:48:25;10.70;99.90
981;DHT22;479;53.514;9.994;2023-03-20T16:51:00;10.80;99.90
981;DHT22;479;53.514;9.994;2023-03-20T16:53:36;10.80;99.90
981;DHT22;479;53.514;9.994;2023-03-20T16:56:05;10.70;99.90
981;DHT22;479;53.514;9.994;2023-03-20T16:58:37;10.70;99.90
981;DHT22;479;53.514;9.994;2023-03-20T17:01:09;10.70;99.90
981;DHT22;479;53.514;9.994;2023-03-20T17:03:47;10.70;99.90
981;DHT22;479;53.514;9.994;2023-03-20T17:06:30;10.80;99.90
981;DHT22;479;53.514;9.994;2023-03-20T17:09:07;10.70;99.90
981;DHT22;479;53.514;9.994;2023-03-20T17:11:38;10.70;99.90
981;DHT22;479;53.514;9.994;2023-03-20T17:14:06;10.80;99.90
981;DHT22;479;53.514;9.994;2023-03-20T17:16:33;10.80;99.90
981;DHT22;479;53.514;9.994;2023-03-20T17:19:03;10.80;99.90
981;DHT22;479;53.514;9.994;2023-03-20T17:21:30;10.70;99.90
981;DHT22;479;53.514;9.994;2023-03-20T17:23:59;10.70;99.90